Time;durP1;ratioP1;P1;durP2;ratioP2;P2;SDS_P1;SDS_P2;PMS_P1;PMS_P2;Temp;Humidity;BMP_temperature;BMP_pressure;BME280_temperature;BME280_humidity;BME280_pressure;Samples;Min_cycle;Max_cycle;Signal;HPM_P1;HPM_P2
2023/09/08 00:02:13;;;;;;;4.95;3.58;;;31.70;60.10;;;;;;10534040;28;20123;-34
2023/09/08 00:07:15;;;;;;;6.07;4.00;;;31.70;60.10;;;;;;10531193;28;20151;-35
2023/09/08 00:12:18;;;;;;;4.75;3.75;;;31.60;60.10;;;;;;10525186;28;20449;-33
2023/09/08 00:17:20;;;;;;;6.00;3.65;;;31.60;60.20;;;;;;10540141;28;20163;-32
2023/09/08 00:22:22;;;;;;;3.92;3.53;;;31.50;60.20;;;;;;10524987;28;20206;-31
2023/09/08 00:27:25;;;;;;;4.35;3.50;;;31.50;60.30;;;;;;10531772;28;20036;-33
2023/09/08 00:32:27;;;;;;;5.07;3.13;;;31.50;60.30;;;;;;10529070;28;20127;-34
2023/09/08 00:37:28;;;;;;;4.90;3.60;;;31.40;60.20;;;;;;10535373;28;20559;-36
2023/09/08 00:42:31;;;;;;;5.55;3.53;;;31.40;60.30;;;;;;10530795;28;20044;-34
2023/09/08 00:47:34;;;;;;;5.60;3.15;;;31.30;60.40;;;;;;10526138;28;20089;-34
2023/09/08 00:52:36;;;;;;;3.80;3.40;;;31.30;60.40;;;;;;10531063;28;20842;-31
2023/09/08 00:57:39;;;;;;;4.90;3.30;;;31.30;60.50;;;;;;10533580;28;20120;-36
2023/09/08 01:02:41;;;;;;;3.88;3.17;;;31.30;60.50;;;;;;10518854;28;20536;-35
2023/09/08 01:07:43;;;;;;;4.57;3.40;;;31.20;60.50;;;;;;10517018;28;20079;-41
2023/09/08 01:12:46;;;;;;;4.25;3.55;;;31.20;60.70;;;;;;10522740;28;20068;-32
2023/09/08 01:17:49;;;;;;;5.45;3.03;;;31.10;60.70;;;;;;10526109;28;20078;-35
2023/09/08 01:23:18;;;;;;;3.53;3.08;;;31.10;60.70;;;;;;10523864;28;20049;-34
2023/09/08 01:28:23;;;;;;;4.18;3.50;;;31.10;60.70;;;;;;10538648;28;20109;-32
2023/09/08 01:33:25;;;;;;;4.00;3.33;;;31.00;60.70;;;;;;10520971;28;20488;-35
2023/09/08 01:38:27;;;;;;;3.65;3.35;;;31.00;60.70;;;;;;10530754;28;20123;-36
2023/09/08 01:43:30;;;;;;;5.28;3.25;;;31.00;60.80;;;;;;10528609;28;20123;-35
2023/09/08 01:48:32;;;;;;;5.38;3.58;;;30.90;60.90;;;;;;10534651;28;20072;-36
2023/09/08 01:53:34;;;;;;;2.67;2.47;;;30.90;60.80;;;;;;10523891;28;20080;-38
2023/09/08 01:58:37;;;;;;;4.65;3.35;;;30.90;60.90;;;;;;10523591;28;20473;-33
2023/09/08 02:03:39;;;;;;;3.22;2.92;;;30.90;60.90;;;;;;10529616;27;20457;-34
2023/09/08 02:08:41;;;;;;;3.90;3.50;;;30.80;61.00;;;;;;10532663;28;20071;-34
2023/09/08 02:13:44;;;;;;;3.58;3.22;;;30.80;61.00;;;;;;10515819;28;20090;-32
2023/09/08 02:18:46;;;;;;;5.40;3.60;;;30.80;61.00;;;;;;10532206;28;20071;-34
2023/09/08 02:23:48;;;;;;;4.50;3.20;;;30.80;61.10;;;;;;10520535;28;20685;-37
2023/09/08 02:28:54;;;;;;;3.75;3.15;;;30.70;61.00;;;;;;10529054;28;20093;-34
2023/09/08 02:33:55;;;;;;;4.13;3.30;;;30.70;61.10;;;;;;10513817;28;20094;-35
2023/09/08 02:38:58;;;;;;;3.95;2.70;;;30.70;61.10;;;;;;10522094;28;20068;-32
2023/09/08 02:44:01;;;;;;;4.65;3.70;;;30.60;61.20;;;;;;10509647;28;20121;-31
2023/09/08 02:49:03;;;;;;;4.38;3.42;;;30.60;61.20;;;;;;10524554;28;20575;-28
2023/09/08 02:54:06;;;;;;;5.10;3.15;;;30.50;61.20;;;;;;10522678;28;20494;-32
2023/09/08 03:15:30;;;;;;;5.13;3.78;;;30.40;61.10;;;;;;10493671;27;20167;-38
2023/09/08 03:20:32;;;;;;;3.70;3.30;;;30.40;61.70;;;;;;10476499;28;20443;-33
2023/09/08 03:25:33;;;;;;;5.53;3.22;;;30.40;61.60;;;;;;10480078;28;20099;-32
2023/09/08 03:30:37;;;;;;;3.72;3.30;;;30.40;61.60;;;;;;10474819;28;20429;-30
2023/09/08 03:35:39;;;;;;;4.88;3.28;;;30.30;61.50;;;;;;10473883;28;20490;-32
2023/09/08 03:40:41;;;;;;;3.70;3.10;;;30.30;61.50;;;;;;10463797;28;20532;-38
2023/09/08 03:45:47;;;;;;;4.00;3.60;;;30.30;61.50;;;;;;10480634;28;20076;-32
2023/09/08 03:50:48;;;;;;;4.03;3.60;;;30.30;61.60;;;;;;10489932;28;20041;-38
2023/09/08 03:55:50;;;;;;;4.22;3.10;;;30.30;61.60;;;;;;10489123;28;20049;-36
2023/09/08 04:00:54;;;;;;;3.88;3.33;;;30.20;61.70;;;;;;10490685;28;20137;-38
2023/09/08 04:05:55;;;;;;;4.05;3.47;;;30.20;61.60;;;;;;10488131;28;20068;-39
2023/09/08 04:10:57;;;;;;;3.90;3.53;;;30.20;61.70;;;;;;10477898;28;20144;-33
2023/09/08 04:16:00;;;;;;;5.15;4.18;;;30.20;61.70;;;;;;10482956;28;20052;-34
2023/09/08 04:21:02;;;;;;;4.90;3.65;;;30.10;61.70;;;;;;10477944;28;20091;-38
2023/09/08 04:26:04;;;;;;;4.68;3.80;;;30.20;61.80;;;;;;10443054;28;20135;-35
2023/09/08 04:31:07;;;;;;;6.10;3.95;;;30.10;61.60;;;;;;10451467;28;20053;-33
2023/09/08 04:36:10;;;;;;;5.63;4.00;;;30.10;61.60;;;;;;10441113;28;20048;-33
2023/09/08 04:41:12;;;;;;;4.40;4.00;;;30.10;61.50;;;;;;10448822;28;20044;-34
2023/09/08 04:46:15;;;;;;;5.80;4.50;;;30.10;61.40;;;;;;10451879;28;20668;-33
2023/09/08 04:51:17;;;;;;;6.82;4.18;;;30.10;61.20;;;;;;10447718;28;20080;-32
2023/09/08 04:56:19;;;;;;;6.00;3.80;;;30.00;61.10;;;;;;10443464;28;20119;-37
2023/09/08 05:01:24;;;;;;;5.45;4.30;;;30.00;61.00;;;;;;10436482;28;20128;-34
2023/09/08 05:06:26;;;;;;;6.53;4.45;;;30.00;60.90;;;;;;10452048;28;20382;-38
2023/09/08 05:11:29;;;;;;;7.38;5.00;;;30.00;60.90;;;;;;10447450;28;20157;-33
2023/09/08 05:16:39;;;;;;;8.55;4.60;;;29.90;60.90;;;;;;10443246;28;20069;-48
2023/09/08 05:21:43;;;;;;;7.23;4.90;;;29.90;60.70;;;;;;10445243;28;20559;-37
2023/09/08 05:26:45;;;;;;;5.25;4.10;;;29.90;60.70;;;;;;10449322;28;20091;-34
2023/09/08 05:31:48;;;;;;;4.38;3.92;;;29.80;61.00;;;;;;10442992;28;20179;-32
2023/09/08 05:36:50;;;;;;;5.63;4.00;;;29.80;61.20;;;;;;10438050;28;20084;-33
2023/09/08 05:41:52;;;;;;;11.27;4.47;;;29.80;61.30;;;;;;10453447;28;20679;-31
2023/09/08 05:46:55;;;;;;;8.63;4.40;;;29.80;61.40;;;;;;10442499;28;20068;-36
2023/09/08 05:51:56;;;;;;;9.30;4.32;;;29.80;61.40;;;;;;10429358;28;20536;-38
2023/09/08 05:56:58;;;;;;;8.95;4.15;;;29.80;61.40;;;;;;10454826;28;20072;-36
2023/09/08 06:02:01;;;;;;;5.75;4.00;;;29.80;61.40;;;;;;10445570;28;20048;-34
2023/09/08 06:07:03;;;;;;;4.88;3.88;;;29.70;61.50;;;;;;10453707;28;20084;-34
2023/09/08 06:12:06;;;;;;;7.50;4.63;;;29.80;61.50;;;;;;10430907;28;20139;-34
2023/09/08 06:17:10;;;;;;;5.30;3.97;;;29.80;61.50;;;;;;10446489;28;20126;-33
2023/09/08 06:22:12;;;;;;;6.65;4.10;;;29.80;61.40;;;;;;10450307;28;20572;-34
2023/09/08 06:27:15;;;;;;;6.63;3.83;;;29.70;61.40;;;;;;10440482;28;20069;-35
2023/09/08 06:32:18;;;;;;;4.68;3.65;;;29.80;62.00;;;;;;10438342;28;20050;-35
2023/09/08 06:37:20;;;;;;;6.38;4.00;;;29.80;61.40;;;;;;10452150;28;20068;-33
2023/09/08 06:42:22;;;;;;;4.90;3.53;;;29.80;61.30;;;;;;10438072;28;20049;-37
2023/09/08 06:47:25;;;;;;;7.32;3.70;;;29.80;61.30;;;;;;10438596;28;20544;-34
2023/09/08 06:52:27;;;;;;;5.38;3.90;;;29.80;61.30;;;;;;10445089;28;20717;-35
2023/09/08 06:57:29;;;;;;;5.75;4.20;;;29.80;61.20;;;;;;10447826;28;20079;-35
2023/09/08 07:02:32;;;;;;;6.03;3.65;;;29.90;61.20;;;;;;10434508;28;20502;-32
2023/09/08 07:07:34;;;;;;;5.72;3.47;;;29.80;61.20;;;;;;10449045;28;20057;-32
2023/09/08 07:12:36;;;;;;;6.70;4.07;;;29.80;61.90;;;;;;10437548;28;20517;-34
2023/09/08 07:17:39;;;;;;;4.65;4.15;;;29.80;61.20;;;;;;10442584;28;20124;-37
2023/09/08 07:22:41;;;;;;;5.45;3.70;;;29.80;61.40;;;;;;10437755;28;20068;-35
2023/09/08 07:27:43;;;;;;;4.20;3.50;;;29.80;61.20;;;;;;10441438;28;20107;-35
2023/09/08 07:32:46;;;;;;;4.28;3.88;;;29.80;61.30;;;;;;10438955;28;20065;-31
2023/09/08 07:37:48;;;;;;;4.68;3.80;;;29.80;61.30;;;;;;10449871;28;20052;-32
2023/09/08 07:42:50;;;;;;;8.07;5.55;;;29.90;61.20;;;;;;10443298;28;20224;-33
2023/09/08 07:47:53;;;;;;;5.82;3.83;;;29.90;61.30;;;;;;10448261;28;20545;-32
2023/09/08 07:52:57;;;;;;;4.32;3.90;;;29.70;61.70;;;;;;10438417;28;20107;-39
2023/09/08 07:57:59;;;;;;;4.72;3.88;;;29.90;61.70;;;;;;10442272;28;20056;-38
2023/09/08 08:03:02;;;;;;;4.93;3.85;;;29.90;61.50;;;;;;10451042;28;20072;-34
2023/09/08 08:08:04;;;;;;;6.32;3.70;;;29.90;61.30;;;;;;10456499;28;20111;-34
2023/09/08 08:13:06;;;;;;;10.20;6.40;;;29.90;61.50;;;;;;10443854;28;20096;-34
2023/09/08 08:18:10;;;;;;;4.47;3.83;;;29.90;61.40;;;;;;10456020;28;20072;-35
2023/09/08 08:23:12;;;;;;;6.55;4.80;;;30.00;61.30;;;;;;10442144;28;20048;-41
2023/09/08 08:28:14;;;;;;;7.38;3.78;;;29.70;62.00;;;;;;10440301;28;20507;-35
2023/09/08 08:33:17;;;;;;;5.65;4.13;;;29.90;61.80;;;;;;10450830;28;20044;-37
2023/09/08 08:38:20;;;;;;;5.35;3.60;;;29.60;62.40;;;;;;10453512;28;20124;-32
2023/09/08 08:43:24;;;;;;;6.93;5.32;;;29.90;62.20;;;;;;10449419;28;20037;-32
2023/09/08 08:48:30;;;;;;;9.48;5.93;;;29.50;62.60;;;;;;10442734;28;20095;-39
2023/09/08 08:53:33;;;;;;;7.90;5.43;;;28.70;65.40;;;;;;10448144;28;20048;-32
2023/09/08 08:58:36;;;;;;;4.07;3.70;;;28.80;65.60;;;;;;10460446;28;20128;-37
2023/09/08 09:03:41;;;;;;;11.65;8.73;;;29.70;63.30;;;;;;10450532;28;20091;-39
2023/09/08 09:08:44;;;;;;;4.82;3.28;;;28.70;68.20;;;;;;10435810;28;20465;-35
2023/09/08 09:13:46;;;;;;;3.78;3.40;;;29.70;63.60;;;;;;10452419;28;20092;-35
2023/09/08 09:18:56;;;;;;;15.02;8.63;;;29.00;66.20;;;;;;10455856;28;20656;-33
2023/09/08 09:23:58;;;;;;;4.83;4.10;;;28.90;67.50;;;;;;10460462;28;20776;-35
2023/09/08 09:29:00;;;;;;;13.52;10.40;;;29.30;66.20;;;;;;10446258;28;20065;-33
2023/09/08 09:34:06;;;;;;;3.80;3.40;;;29.10;66.20;;;;;;10444247;28;20079;-33
2023/09/08 09:39:09;;;;;;;4.35;3.60;;;29.70;64.30;;;;;;10447028;28;20048;-34
2023/09/08 09:44:11;;;;;;;21.25;11.50;;;29.20;65.80;;;;;;10447443;28;20478;-37
2023/09/08 09:49:17;;;;;;;13.20;8.02;;;28.70;68.80;;;;;;10448284;28;20045;-34
2023/09/08 09:54:20;;;;;;;6.35;3.47;;;29.00;67.60;;;;;;10448385;28;20053;-34
2023/09/08 09:59:23;;;;;;;29.13;13.15;;;28.90;68.00;;;;;;10455837;28;20036;-31
2023/09/08 10:04:26;;;;;;;7.03;4.32;;;28.80;71.00;;;;;;10446873;28;20053;-35
2023/09/08 10:09:28;;;;;;;5.80;3.72;;;29.10;67.70;;;;;;10449612;28;20133;-33
2023/09/08 10:14:32;;;;;;;4.55;3.40;;;28.90;68.30;;;;;;10446373;28;20056;-36
2023/09/08 10:19:41;;;;;;;8.68;5.43;;;29.50;66.30;;;;;;10451434;28;20072;-40
2023/09/08 10:24:47;;;;;;;4.30;3.90;;;29.20;68.60;;;;;;10444537;28;20153;-36
2023/09/08 10:29:49;;;;;;;18.83;10.18;;;29.10;67.90;;;;;;10447374;28;20085;-38
2023/09/08 10:34:57;;;;;;;12.95;9.48;;;29.40;66.60;;;;;;10443982;28;20132;-33
2023/09/08 10:40:21;;;;;;;14.68;8.63;;;29.30;68.80;;;;;;10441198;28;20057;-35
2023/09/08 10:45:23;;;;;;;9.98;6.28;;;29.20;68.70;;;;;;10444920;28;20417;-34
2023/09/08 10:50:33;;;;;;;9.20;6.72;;;29.50;65.90;;;;;;10444154;28;20132;-39
2023/09/08 10:55:43;;;;;;;11.45;7.32;;;29.00;70.30;;;;;;10445850;28;20048;-33
2023/09/08 11:00:47;;;;;;;7.20;6.35;;;29.50;67.50;;;;;;10447149;28;20139;-31
2023/09/08 11:05:51;;;;;;;12.75;7.82;;;29.20;70.40;;;;;;10456433;28;20060;-33
2023/09/08 11:10:53;;;;;;;4.22;3.67;;;29.20;70.00;;;;;;10450295;28;20514;-33
2023/09/08 11:15:55;;;;;;;12.27;8.23;;;29.70;68.20;;;;;;10439382;28;20470;-33
2023/09/08 11:20:59;;;;;;;6.30;4.50;;;29.70;65.30;;;;;;10445919;28;20302;-36
2023/09/08 11:26:01;;;;;;;9.32;6.72;;;29.90;66.40;;;;;;10433839;28;20076;-33
2023/09/08 11:31:04;;;;;;;5.90;4.45;;;29.60;69.40;;;;;;10448517;28;20107;-37
2023/09/08 11:36:14;;;;;;;9.57;3.63;;;29.70;64.00;;;;;;10442228;28;20508;-34
2023/09/08 11:41:16;;;;;;;6.57;4.07;;;30.20;64.00;;;;;;10449153;28;20044;-36
2023/09/08 11:46:18;;;;;;;9.70;4.80;;;30.40;62.40;;;;;;10443678;28;20132;-34
2023/09/08 11:51:25;;;;;;;3.95;3.13;;;30.60;62.80;;;;;;10435342;28;20045;-35
2023/09/08 11:56:27;;;;;;;6.63;4.93;;;31.20;62.00;;;;;;10448471;28;20053;-36
2023/09/08 12:01:29;;;;;;;5.80;4.03;;;31.20;62.70;;;;;;10450187;28;20048;-39
2023/09/08 12:06:32;;;;;;;8.18;6.05;;;31.10;62.50;;;;;;10448964;28;20938;-33
2023/09/08 12:11:37;;;;;;;7.18;6.00;;;30.60;62.70;;;;;;10438774;28;20056;-37
2023/09/08 12:16:38;;;;;;;12.23;7.43;;;30.30;63.40;;;;;;10458952;28;20056;-37
2023/09/08 12:21:57;;;;;;;6.35;4.10;;;30.30;64.70;;;;;;10449535;28;20160;-40
2023/09/08 12:27:03;;;;;;;9.23;3.65;;;31.30;61.80;;;;;;10451302;28;20124;-33
2023/09/08 12:32:05;;;;;;;3.80;2.38;;;31.90;58.90;;;;;;10447189;28;20462;-38
2023/09/08 12:37:11;;;;;;;5.45;3.22;;;31.70;61.80;;;;;;10461955;28;20147;-36
2023/09/08 12:42:13;;;;;;;11.75;3.90;;;31.90;58.70;;;;;;10457242;28;20041;-34
2023/09/08 12:47:15;;;;;;;4.72;3.58;;;32.40;57.20;;;;;;10452039;28;20049;-38
2023/09/08 12:52:18;;;;;;;9.00;3.35;;;32.60;58.50;;;;;;10449627;28;20044;-34
2023/09/08 12:57:20;;;;;;;5.40;2.95;;;33.10;55.40;;;;;;10453002;28;20052;-32
2023/09/08 13:02:22;;;;;;;7.25;3.03;;;33.10;55.40;;;;;;10457638;28;20458;-33
2023/09/08 13:07:25;;;;;;;8.52;6.22;;;33.60;54.90;;;;;;10461355;28;20474;-41
2023/09/08 13:12:27;;;;;;;13.05;6.70;;;33.30;58.40;;;;;;10443008;28;20057;-34
2023/09/08 13:17:29;;;;;;;12.40;7.18;;;33.20;58.30;;;;;;10468478;28;20115;-33
2023/09/08 13:22:32;;;;;;;16.25;8.68;;;33.40;59.40;;;;;;10450278;28;20390;-34
2023/09/08 13:27:34;;;;;;;9.05;5.60;;;32.90;59.80;;;;;;10459793;28;20103;-32
2023/09/08 13:32:36;;;;;;;13.43;10.40;;;33.50;60.00;;;;;;10450083;28;20053;-37
2023/09/08 13:37:39;;;;;;;13.57;10.25;;;33.10;60.00;;;;;;10431949;28;20144;-34
2023/09/08 13:42:41;;;;;;;21.42;13.25;;;33.20;61.30;;;;;;10427838;28;20402;-35
2023/09/08 13:47:42;;;;;;;12.40;9.52;;;33.60;60.50;;;;;;10448019;28;20114;-37
2023/09/08 13:52:46;;;;;;;18.45;13.55;;;33.20;62.20;;;;;;10435800;28;21892;-37
2023/09/08 13:57:47;;;;;;;20.10;12.70;;;33.90;60.00;;;;;;10449404;28;20152;-34
2023/09/08 14:02:49;;;;;;;20.10;14.80;;;33.70;60.50;;;;;;10423975;28;20105;-32
2023/09/08 14:07:52;;;;;;;15.82;11.82;;;33.30;59.60;;;;;;10438025;28;20142;-31
2023/09/08 14:12:54;;;;;;;21.65;15.68;;;34.30;59.90;;;;;;10438966;28;20147;-31
2023/09/08 14:17:56;;;;;;;18.55;12.30;;;35.20;57.60;;;;;;10446600;28;20048;-38
2023/09/08 14:22:59;;;;;;;12.23;10.23;;;35.10;59.30;;;;;;10449256;28;20084;-35
2023/09/08 14:28:02;;;;;;;23.90;19.10;;;35.10;58.90;;;;;;10452345;28;20128;-31
2023/09/08 14:33:05;;;;;;;32.67;22.42;;;34.60;60.00;;;;;;10432421;28;20056;-30
2023/09/08 14:38:09;;;;;;;32.95;21.85;;;34.20;58.80;;;;;;10436390;28;20057;-32
2023/09/08 14:43:11;;;;;;;29.15;19.67;;;34.10;60.20;;;;;;10427718;28;20123;-35
2023/09/08 14:48:12;;;;;;;28.00;19.90;;;34.40;62.50;;;;;;10425641;28;20048;-39
2023/09/08 14:53:16;;;;;;;27.17;21.15;;;35.00;62.90;;;;;;10437465;28;20049;-36
2023/09/08 14:58:18;;;;;;;20.45;13.23;;;35.40;57.30;;;;;;10431207;28;20083;-32
2023/09/08 15:03:19;;;;;;;23.73;18.70;;;35.90;58.40;;;;;;10434027;28;20064;-33
2023/09/08 15:08:23;;;;;;;27.05;17.38;;;36.50;57.50;;;;;;10442508;28;20126;-37
2023/09/08 15:13:24;;;;;;;21.67;15.05;;;36.80;57.50;;;;;;10427927;28;20532;-35
2023/09/08 15:18:27;;;;;;;22.95;17.27;;;35.80;57.40;;;;;;10446844;28;20508;-38
2023/09/08 15:23:30;;;;;;;7.57;5.55;;;36.20;55.60;;;;;;10448598;28;20118;-36
2023/09/08 15:28:32;;;;;;;22.58;16.02;;;36.30;67.50;;;;;;10457744;28;20132;-34
2023/09/08 15:33:33;;;;;;;25.17;17.23;;;36.60;54.20;;;;;;10452392;28;20044;-31
2023/09/08 15:38:37;;;;;;;23.00;15.75;;;35.60;57.00;;;;;;10434297;28;20501;-32
2023/09/08 15:43:41;;;;;;;14.00;8.63;;;34.80;66.70;;;;;;10450837;28;20137;-34
2023/09/08 15:48:43;;;;;;;21.67;16.33;;;35.70;61.20;;;;;;10443089;28;20058;-33
2023/09/08 15:53:46;;;;;;;20.38;15.88;;;35.90;55.60;;;;;;10431767;28;20118;-32
2023/09/08 15:58:48;;;;;;;20.20;15.43;;;35.90;57.30;;;;;;10433453;28;20103;-34
2023/09/08 16:03:50;;;;;;;21.48;17.02;;;36.20;55.70;;;;;;10442064;28;20426;-34
2023/09/08 16:08:53;;;;;;;30.00;18.88;;;36.20;54.80;;;;;;10447099;28;20045;-31
2023/09/08 16:13:55;;;;;;;18.27;14.40;;;35.10;55.60;;;;;;10435927;28;20084;-34
2023/09/08 16:18:56;;;;;;;15.93;11.57;;;36.30;60.40;;;;;;10423477;28;20045;-33
2023/09/08 16:24:00;;;;;;;19.85;13.30;;;36.00;59.20;;;;;;10452392;28;20084;-37
2023/09/08 16:29:02;;;;;;;8.30;6.10;;;35.70;57.60;;;;;;10446209;28;20499;-35
2023/09/08 16:34:03;;;;;;;9.63;8.07;;;35.60;65.60;;;;;;10430593;28;20139;-39
2023/09/08 16:39:07;;;;;;;11.70;9.15;;;35.90;60.30;;;;;;10447691;28;20045;-40
2023/09/08 16:44:09;;;;;;;16.30;10.23;;;36.60;54.20;;;;;;10442524;28;20131;-34
2023/09/08 16:49:11;;;;;;;16.63;11.25;;;35.60;55.50;;;;;;10440646;28;20045;-37
2023/09/08 16:54:14;;;;;;;11.95;10.20;;;34.50;61.80;;;;;;10440459;28;20435;-35
2023/09/08 16:59:16;;;;;;;15.65;10.73;;;34.70;58.50;;;;;;10467054;28;20081;-32
2023/09/08 17:04:18;;;;;;;15.32;10.35;;;34.70;60.70;;;;;;10453435;28;20102;-36
2023/09/08 17:09:22;;;;;;;17.48;10.05;;;35.40;65.00;;;;;;10452108;28;20136;-31
2023/09/08 17:14:24;;;;;;;12.40;10.20;;;36.00;59.30;;;;;;10447110;28;20095;-33
2023/09/08 17:19:26;;;;;;;4.95;3.95;;;34.40;77.70;;;;;;10451080;28;20132;-35
2023/09/08 17:24:29;;;;;;;18.75;11.43;;;35.30;87.00;;;;;;10450818;28;20144;-39
2023/09/08 17:29:31;;;;;;;4.95;3.50;;;34.10;85.30;;;;;;10448764;28;20053;-30
2023/09/08 17:34:33;;;;;;;7.90;5.35;;;35.50;85.00;;;;;;10444763;28;20140;-31
2023/09/08 17:39:36;;;;;;;6.68;5.70;;;36.10;81.10;;;;;;10454003;28;20045;-36
2023/09/08 17:44:39;;;;;;;22.17;15.98;;;35.10;70.00;;;;;;10437838;28;20109;-35
2023/09/08 17:49:40;;;;;;;5.05;4.00;;;33.90;86.20;;;;;;10448571;28;20107;-37
2023/09/08 17:54:43;;;;;;;4.43;3.42;;;34.60;87.80;;;;;;10442115;28;20476;-39
2023/09/08 17:59:45;;;;;;;10.80;7.43;;;35.80;81.40;;;;;;10453371;28;20049;-33
2023/09/08 18:04:47;;;;;;;29.92;21.40;;;34.70;83.40;;;;;;10437236;28;20048;-39
2023/09/08 18:09:50;;;;;;;8.43;6.65;;;32.20;90.20;;;;;;10450075;28;20049;-33
2023/09/08 18:14:52;;;;;;;5.30;4.13;;;33.80;88.10;;;;;;10437034;28;20153;-36
2023/09/08 18:19:54;;;;;;;5.00;4.03;;;33.30;90.50;;;;;;10435683;28;20095;-34
2023/09/08 18:24:58;;;;;;;29.30;18.92;;;34.30;74.50;;;;;;10439925;28;20048;-36
2023/09/08 18:30:00;;;;;;;4.55;3.80;;;34.50;81.00;;;;;;10443524;28;20053;-38
2023/09/08 18:35:02;;;;;;;4.05;3.63;;;35.00;76.90;;;;;;10431149;28;20045;-33
2023/09/08 18:40:07;;;;;;;5.82;3.72;;;34.90;72.90;;;;;;10432196;28;20368;-31
2023/09/08 18:45:09;;;;;;;4.55;3.47;;;34.80;71.10;;;;;;10430040;28;20073;-32
2023/09/08 18:50:12;;;;;;;5.00;4.15;;;34.70;69.80;;;;;;10447828;28;20053;-35
2023/09/08 18:55:15;;;;;;;6.65;4.18;;;34.60;69.20;;;;;;10428707;28;20134;-30
2023/09/08 19:00:17;;;;;;;5.80;4.78;;;34.50;68.60;;;;;;10438142;28;20151;-33
2023/09/08 19:05:19;;;;;;;6.60;5.25;;;34.40;67.70;;;;;;10436347;28;20060;-36
2023/09/08 19:10:23;;;;;;;6.97;5.82;;;34.30;66.90;;;;;;10447772;28;20069;-33
2023/09/08 19:15:25;;;;;;;8.20;6.00;;;34.20;66.60;;;;;;10445187;28;20134;-32
2023/09/08 19:20:27;;;;;;;10.00;6.80;;;34.10;67.20;;;;;;10444834;28;20089;-39
2023/09/08 19:25:31;;;;;;;9.32;6.55;;;34.00;66.70;;;;;;10443166;28;20512;-32
2023/09/08 19:30:33;;;;;;;9.15;6.63;;;34.00;66.70;;;;;;10438577;28;20072;-34
2023/09/08 19:35:35;;;;;;;10.23;6.18;;;34.00;66.90;;;;;;10445286;28;20152;-33
2023/09/08 19:40:38;;;;;;;12.45;6.88;;;33.90;66.40;;;;;;10440548;28;20478;-31
2023/09/08 19:45:40;;;;;;;11.35;7.05;;;33.80;66.80;;;;;;10453850;28;20076;-35
2023/09/08 19:50:44;;;;;;;9.13;6.65;;;33.70;66.90;;;;;;10430929;28;20397;-36
2023/09/08 19:55:49;;;;;;;15.00;7.78;;;33.70;66.50;;;;;;10447771;28;20048;-34
2023/09/08 20:00:51;;;;;;;11.18;7.63;;;33.60;66.30;;;;;;10452183;28;20092;-32
2023/09/08 20:05:53;;;;;;;9.35;7.50;;;33.50;66.90;;;;;;10459425;28;20775;-38
2023/09/08 20:10:57;;;;;;;11.40;7.70;;;33.50;67.20;;;;;;10459795;28;20110;-41
2023/09/08 20:15:59;;;;;;;8.88;7.38;;;33.40;67.40;;;;;;10440674;28;20059;-34
2023/09/08 20:21:04;;;;;;;8.85;7.32;;;33.40;67.00;;;;;;10469812;28;20047;-35
2023/09/08 20:26:08;;;;;;;7.60;6.60;;;33.30;67.30;;;;;;10444880;28;20065;-34
2023/09/08 20:31:10;;;;;;;9.98;7.10;;;33.30;67.20;;;;;;10464883;28;20076;-32
2023/09/08 20:36:13;;;;;;;8.18;6.40;;;33.20;67.40;;;;;;10453317;28;20138;-33
2023/09/08 20:41:16;;;;;;;7.60;6.38;;;33.10;67.70;;;;;;10434748;28;20092;-31
2023/09/08 20:46:17;;;;;;;7.15;6.10;;;33.10;67.70;;;;;;10443011;28;20055;-38
2023/09/08 20:51:20;;;;;;;8.10;6.63;;;33.00;67.60;;;;;;10441818;28;20160;-31
2023/09/08 20:56:23;;;;;;;9.27;7.35;;;33.00;67.20;;;;;;10438601;28;20102;-32
2023/09/08 21:01:26;;;;;;;11.00;8.65;;;32.90;66.80;;;;;;10447945;28;20060;-36
2023/09/08 21:06:28;;;;;;;10.82;8.00;;;32.80;66.90;;;;;;10449193;28;20052;-34
2023/09/08 21:11:31;;;;;;;9.68;7.55;;;32.80;67.10;;;;;;10444626;28;20144;-30
2023/09/08 21:16:33;;;;;;;9.77;7.40;;;32.70;67.10;;;;;;10432027;28;20783;-38
2023/09/08 21:21:35;;;;;;;10.63;7.30;;;32.70;66.80;;;;;;10442961;28;20092;-31
2023/09/08 21:26:38;;;;;;;10.13;7.00;;;32.60;66.60;;;;;;10449415;28;20510;-32
2023/09/08 21:31:40;;;;;;;11.45;7.30;;;32.60;67.30;;;;;;10437564;28;20502;-42
2023/09/08 21:36:43;;;;;;;11.07;7.00;;;32.60;67.00;;;;;;10429954;28;20055;-37
2023/09/08 21:41:46;;;;;;;9.32;6.97;;;32.50;67.10;;;;;;10455126;28;20053;-32
2023/09/08 21:46:48;;;;;;;10.10;7.95;;;32.40;66.80;;;;;;10430553;28;20557;-36
2023/09/08 21:51:51;;;;;;;13.05;7.75;;;32.40;67.00;;;;;;10446377;28;20132;-39
2023/09/08 21:56:54;;;;;;;12.55;7.72;;;32.30;67.00;;;;;;10446752;28;20084;-40
2023/09/08 22:01:56;;;;;;;15.82;8.90;;;32.30;66.50;;;;;;10444763;28;20168;-35
2023/09/08 22:06:58;;;;;;;14.82;8.13;;;32.30;66.70;;;;;;10450226;28;20127;-34
2023/09/08 22:12:02;;;;;;;14.13;9.18;;;32.20;66.40;;;;;;10452802;28;20149;-35
2023/09/08 22:17:05;;;;;;;14.13;9.45;;;32.20;66.30;;;;;;10441326;28;20073;-31
2023/09/08 22:22:07;;;;;;;14.93;9.65;;;32.10;66.00;;;;;;10442518;28;20572;-32
2023/09/08 22:27:10;;;;;;;11.43;9.07;;;32.10;66.00;;;;;;10445344;28;20522;-37
2023/09/08 22:32:12;;;;;;;13.48;8.77;;;32.00;66.20;;;;;;10430508;28;20049;-31
2023/09/08 22:37:14;;;;;;;14.65;9.63;;;32.00;66.50;;;;;;10440888;28;20073;-36
2023/09/08 22:42:18;;;;;;;12.75;8.75;;;31.90;66.20;;;;;;10435607;28;20525;-32
2023/09/08 22:47:20;;;;;;;11.63;8.95;;;31.90;66.00;;;;;;10443304;28;20669;-31
2023/09/08 22:52:21;;;;;;;11.10;9.13;;;31.80;65.80;;;;;;10446654;28;20521;-33
2023/09/08 22:57:25;;;;;;;12.35;9.63;;;31.80;66.60;;;;;;10446413;28;20115;-37
2023/09/08 23:02:27;;;;;;;10.73;8.68;;;31.70;65.90;;;;;;10454707;28;20454;-31
2023/09/08 23:07:29;;;;;;;12.23;8.98;;;31.70;66.00;;;;;;10456082;28;20087;-35
2023/09/08 23:12:32;;;;;;;13.70;9.75;;;31.70;65.90;;;;;;10439975;28;20087;-31
2023/09/08 23:17:34;;;;;;;12.30;9.35;;;31.60;65.90;;;;;;10432804;28;20073;-33
2023/09/08 23:22:36;;;;;;;12.38;8.48;;;31.50;65.80;;;;;;10440295;28;20128;-32
2023/09/08 23:27:40;;;;;;;11.15;8.60;;;31.50;65.90;;;;;;10446065;28;20143;-37
2023/09/08 23:32:41;;;;;;;11.05;8.27;;;31.50;66.00;;;;;;10457135;28;20056;-36
2023/09/08 23:37:44;;;;;;;12.95;8.65;;;31.40;65.80;;;;;;10458858;28;20053;-36
2023/09/08 23:42:47;;;;;;;12.40;8.65;;;31.40;65.90;;;;;;10445894;28;20053;-38
2023/09/08 23:47:49;;;;;;;14.20;8.82;;;31.30;65.70;;;;;;10436437;28;20142;-31
2023/09/08 23:52:51;;;;;;;10.75;7.85;;;31.30;65.70;;;;;;10455566;28;20065;-32
2023/09/08 23:57:54;;;;;;;9.88;7.65;;;31.20;66.10;;;;;;10451514;28;20055;-37
